createdAt,value
2018-05-06T00:00:39.836Z,18.85
2018-05-06T00:03:08.836Z,18.85
2018-05-06T00:05:37.933Z,18.85
2018-05-06T00:08:06.872Z,18.77
2018-05-06T00:10:35.668Z,18.71
2018-05-06T00:13:07.887Z,18.72
2018-05-06T00:15:36.881Z,18.70
2018-05-06T00:18:05.880Z,18.66
2018-05-06T00:20:34.908Z,18.65
2018-05-06T00:23:04.011Z,18.73
2018-05-06T00:25:32.816Z,18.74
2018-05-06T00:28:02.584Z,18.74
2018-05-06T00:30:32.272Z,18.73
2018-05-06T00:33:01.172Z,18.77
2018-05-06T00:35:30.169Z,18.75
2018-05-06T00:37:59.160Z,18.69
2018-05-06T00:40:28.050Z,18.69
2018-05-06T00:42:58.004Z,18.55
2018-05-06T00:45:26.957Z,18.58
2018-05-06T00:47:55.863Z,18.62
2018-05-06T00:50:24.830Z,18.60
2018-05-06T00:52:53.738Z,18.62
2018-05-06T00:55:22.558Z,18.65
2018-05-06T00:57:51.626Z,18.65
2018-05-06T01:00:23.017Z,18.60
2018-05-06T01:02:51.965Z,18.55
2018-05-06T01:05:26.526Z,18.59
2018-05-06T01:07:55.563Z,18.60
2018-05-06T01:10:25.598Z,18.59
2018-05-06T01:12:55.725Z,18.54
2018-05-06T01:15:24.647Z,18.47
2018-05-06T01:17:54.654Z,18.38
2018-05-06T01:20:23.631Z,18.29
2018-05-06T01:22:52.522Z,18.16
2018-05-06T01:25:21.618Z,18.05
2018-05-06T01:27:50.613Z,17.97
2018-05-06T01:30:19.604Z,17.88
2018-05-06T01:35:22.299Z,17.66
2018-05-06T01:37:51.160Z,17.61
2018-05-06T01:40:20.942Z,17.37
2018-05-06T01:42:50.003Z,17.27
2018-05-06T01:45:18.892Z,17.26
2018-05-06T01:47:47.992Z,17.23
2018-05-06T01:50:16.982Z,17.16
2018-05-06T01:52:45.992Z,17.12
2018-05-06T01:55:16.823Z,17.10
2018-05-06T01:57:46.612Z,17.07
2018-05-06T02:00:15.520Z,17.04
2018-05-06T02:05:18.462Z,16.98
2018-05-06T02:07:47.362Z,16.94
2018-05-06T02:10:17.220Z,16.89
2018-05-06T02:12:46.331Z,16.86
2018-05-06T02:15:15.322Z,16.81
2018-05-06T02:17:44.190Z,16.81
2018-05-06T02:20:13.110Z,16.78
2018-05-06T02:22:42.005Z,16.74
2018-05-06T02:25:11.405Z,16.68
2018-05-06T02:27:40.919Z,16.63
2018-05-06T02:30:09.746Z,16.64
2018-05-06T02:32:38.695Z,16.68
2018-05-06T02:35:07.715Z,16.70
2018-05-06T02:37:36.580Z,16.75
2018-05-06T02:40:07.324Z,16.75
2018-05-06T02:42:36.211Z,16.76
2018-05-06T02:45:05.115Z,16.70
2018-05-06T02:47:34.118Z,16.68
2018-05-06T02:50:03.084Z,16.70
2018-05-06T02:52:32.081Z,16.72
2018-05-06T02:55:01.016Z,16.73
2018-05-06T02:57:30.067Z,16.72
2018-05-06T02:59:59.049Z,16.68
2018-05-06T03:02:31.204Z,16.66
2018-05-06T03:05:00.224Z,16.62
2018-05-06T03:07:29.114Z,16.61
2018-05-06T03:09:58.109Z,16.64
2018-05-06T03:12:28.024Z,16.76
2018-05-06T03:14:56.989Z,16.90
2018-05-06T03:19:59.927Z,17.17
2018-05-06T03:22:28.920Z,17.43
2018-05-06T03:24:58.217Z,17.79
2018-05-06T03:27:27.112Z,18.24
2018-05-06T03:29:56.000Z,18.74
2018-05-06T03:32:27.062Z,19.26
2018-05-06T03:34:57.007Z,19.85
2018-05-06T03:37:25.951Z,20.52
2018-05-06T03:39:54.942Z,21.13
2018-05-06T03:42:23.935Z,21.65
2018-05-06T03:44:53.036Z,22.34
2018-05-06T03:47:22.031Z,23.05
2018-05-06T03:49:50.913Z,23.78
2018-05-06T03:52:19.810Z,24.19
2018-05-06T03:54:48.797Z,24.98
2018-05-06T03:57:29.578Z,25.58
2018-05-06T04:00:11.888Z,26.30
2018-05-06T04:02:40.955Z,26.91
2018-05-06T04:05:09.815Z,27.48
2018-05-06T04:07:39.525Z,27.85
2018-05-06T04:10:09.392Z,28.30
2018-05-06T04:12:38.390Z,28.73
2018-05-06T04:17:42.343Z,29.49
2018-05-06T04:20:11.305Z,30.30
2018-05-06T04:22:40.299Z,31.10
2018-05-06T04:27:43.385Z,32.05
2018-05-06T04:30:12.323Z,31.43
2018-05-06T04:32:41.164Z,31.10
2018-05-06T04:35:12.010Z,30.65
2018-05-06T04:37:40.929Z,29.88
2018-05-06T04:40:09.719Z,30.58
2018-05-06T04:42:39.385Z,30.03
2018-05-06T04:45:08.165Z,30.38
2018-05-06T04:47:36.947Z,31.22
2018-05-06T04:52:39.474Z,30.99
2018-05-06T04:55:08.312Z,31.13
2018-05-06T04:57:37.143Z,29.59
2018-05-06T05:00:06.007Z,27.98
2018-05-06T05:02:34.834Z,28.46
2018-05-06T05:05:04.512Z,28.63
2018-05-06T05:07:33.258Z,29.27
2018-05-06T05:10:02.067Z,29.31
2018-05-06T05:12:33.660Z,28.73
2018-05-06T05:15:02.508Z,29.12
2018-05-06T05:17:31.300Z,29.15
2018-05-06T05:20:00.991Z,29.73
2018-05-06T05:22:29.807Z,29.40
2018-05-06T05:25:01.057Z,29.61
2018-05-06T05:27:33.929Z,29.04
2018-05-06T05:30:04.332Z,29.31
2018-05-06T05:32:33.480Z,29.30
2018-05-06T05:35:02.343Z,29.97
2018-05-06T05:37:31.066Z,30.12
2018-05-06T05:40:00.036Z,30.10
2018-05-06T05:42:28.894Z,30.89
2018-05-06T05:44:57.705Z,28.96
2018-05-06T05:47:26.506Z,28.99
2018-05-06T05:49:55.339Z,29.22
2018-05-06T05:52:24.120Z,29.68
2018-05-06T05:54:52.924Z,29.43
2018-05-06T05:57:22.621Z,29.43
2018-05-06T05:59:51.389Z,30.44
2018-05-06T06:02:20.144Z,30.53
2018-05-06T06:04:49.021Z,30.25
2018-05-06T06:07:17.944Z,31.18
2018-05-06T06:09:46.796Z,31.40
2018-05-06T06:12:15.599Z,30.78
2018-05-06T06:14:44.407Z,30.95
2018-05-06T06:17:13.203Z,29.68
2018-05-06T06:19:42.040Z,29.48
2018-05-06T06:22:10.853Z,29.14
2018-05-06T06:24:39.669Z,29.56
2018-05-06T06:27:08.504Z,29.02
2018-05-06T06:29:37.262Z,29.39
2018-05-06T06:32:06.074Z,29.73
2018-05-06T06:34:35.772Z,29.88
2018-05-06T06:37:04.575Z,30.42
2018-05-06T06:39:33.343Z,29.90
2018-05-06T06:42:02.169Z,29.68
2018-05-06T06:44:31.038Z,29.79
2018-05-06T06:46:59.987Z,30.12
2018-05-06T06:49:28.808Z,29.92
2018-05-06T06:51:57.584Z,30.36
2018-05-06T06:54:26.373Z,30.28
2018-05-06T06:56:55.307Z,31.47
2018-05-06T06:59:24.103Z,32.27
2018-05-06T07:01:53.017Z,31.77
2018-05-06T07:04:23.570Z,31.85
2018-05-06T07:06:52.347Z,31.19
2018-05-06T07:09:21.125Z,31.85
2018-05-06T07:14:24.075Z,33.77
2018-05-06T07:16:52.936Z,33.02
2018-05-06T07:19:22.664Z,34.06
2018-05-06T07:21:51.480Z,34.50
2018-05-06T07:24:20.275Z,33.56
